createdAt,value
2018-03-31T00:00:50.689Z,31.90
2018-03-31T00:02:22.709Z,33.20
2018-03-31T00:03:54.323Z,29.80
2018-03-31T00:05:26.137Z,31.30
2018-03-31T00:06:57.954Z,30.40
2018-03-31T00:08:29.770Z,32.30
2018-03-31T00:10:01.587Z,31.30
2018-03-31T00:11:33.403Z,33.30
2018-03-31T00:13:05.219Z,34.20
2018-03-31T00:14:37.136Z,35.10
2018-03-31T00:16:08.852Z,35.60
2018-03-31T00:17:40.669Z,35.40
2018-03-31T00:19:12.484Z,36.30
2018-03-31T00:20:44.401Z,37.40
2018-03-31T00:22:16.118Z,36.70
2018-03-31T00:23:47.934Z,34.20
2018-03-31T00:25:19.750Z,33.00
2018-03-31T00:26:51.569Z,34.30
2018-03-31T00:28:23.384Z,35.20
2018-03-31T00:29:55.199Z,37.70
2018-03-31T00:31:27.016Z,40.70
2018-03-31T00:32:59.135Z,42.10
2018-03-31T00:34:30.651Z,42.30
2018-03-31T00:36:02.466Z,47.80
2018-03-31T00:37:34.282Z,52.30
2018-03-31T00:39:06.097Z,49.90
2018-03-31T00:40:37.913Z,43.50
2018-03-31T00:42:09.731Z,40.50
2018-03-31T00:43:41.548Z,41.20
2018-03-31T00:45:13.362Z,43.90
2018-03-31T00:46:45.177Z,44.30
2018-03-31T00:48:16.994Z,45.50
2018-03-31T00:49:48.810Z,48.30
2018-03-31T00:51:21.077Z,50.70
2018-03-31T00:52:52.445Z,49.70
2018-03-31T00:54:24.259Z,53.80
2018-03-31T00:55:56.075Z,54.00
2018-03-31T00:57:27.892Z,51.20
2018-03-31T01:00:31.524Z,51.10
2018-03-31T01:02:03.340Z,54.80
2018-03-31T01:03:35.156Z,50.70
2018-03-31T01:05:06.973Z,50.80
2018-03-31T01:06:38.788Z,57.50
2018-03-31T01:08:10.612Z,61.70
2018-03-31T01:09:42.520Z,56.00
2018-03-31T01:11:14.248Z,51.30
2018-03-31T01:12:46.052Z,46.00
2018-03-31T01:14:17.868Z,48.20
2018-03-31T01:15:49.683Z,48.70
2018-03-31T01:17:21.499Z,48.40
2018-03-31T01:18:53.316Z,48.20
2018-03-31T01:20:25.131Z,51.60
2018-03-31T01:21:57.047Z,52.10
2018-03-31T01:23:28.762Z,51.10
2018-03-31T01:25:00.578Z,51.00
2018-03-31T01:26:32.394Z,47.20
2018-03-31T01:28:04.310Z,47.20
2018-03-31T01:29:36.024Z,47.20
2018-03-31T01:31:07.842Z,45.40
2018-03-31T01:32:39.656Z,46.90
2018-03-31T01:34:11.472Z,51.90
2018-03-31T01:35:43.288Z,54.70
2018-03-31T01:37:15.104Z,54.20
2018-03-31T01:38:46.920Z,51.80
2018-03-31T01:40:18.735Z,54.70
2018-03-31T01:41:50.556Z,54.00
2018-03-31T01:43:22.368Z,57.10
2018-03-31T01:44:54.185Z,56.80
2018-03-31T01:46:26.102Z,62.40
2018-03-31T01:47:57.818Z,54.60
2018-03-31T01:49:29.632Z,53.10
2018-03-31T01:51:01.449Z,57.30
2018-03-31T01:52:33.366Z,51.90
2018-03-31T01:54:05.082Z,48.50
2018-03-31T01:55:36.898Z,46.90
2018-03-31T01:57:08.714Z,47.90
2018-03-31T01:58:40.531Z,41.40
2018-03-31T02:00:12.346Z,52.10
2018-03-31T02:01:44.163Z,55.40
2018-03-31T02:03:15.979Z,52.90
2018-03-31T02:04:48.697Z,54.60
2018-03-31T02:06:19.612Z,52.10
2018-03-31T02:07:51.428Z,59.30
2018-03-31T02:09:23.245Z,56.00
2018-03-31T02:10:55.066Z,52.00
2018-03-31T02:12:26.881Z,48.80
2018-03-31T02:13:58.693Z,49.90
2018-03-31T02:15:30.509Z,52.90
2018-03-31T02:17:02.327Z,54.00
2018-03-31T02:18:34.196Z,48.20
2018-03-31T02:20:05.958Z,53.50
2018-03-31T02:21:37.774Z,61.40
2018-03-31T02:23:09.791Z,61.50
2018-03-31T02:24:41.406Z,55.70
2018-03-31T02:26:13.223Z,60.90
2018-03-31T02:29:17.006Z,55.60
2018-03-31T02:30:48.672Z,57.20
2018-03-31T02:32:20.488Z,59.20
2018-03-31T02:33:52.306Z,53.40
2018-03-31T02:35:24.122Z,53.90
2018-03-31T02:36:55.943Z,56.30
2018-03-31T02:38:27.753Z,51.80
2018-03-31T02:39:59.568Z,49.00
2018-03-31T02:41:31.485Z,50.10
2018-03-31T02:43:03.202Z,49.50
2018-03-31T02:44:35.019Z,53.30
2018-03-31T02:46:06.835Z,53.90
2018-03-31T02:47:38.651Z,53.30
2018-03-31T02:49:10.465Z,54.90
2018-03-31T02:50:42.283Z,57.60
2018-03-31T02:52:14.099Z,56.70
2018-03-31T02:53:46.219Z,58.60
2018-03-31T02:55:17.731Z,59.50
2018-03-31T02:56:49.547Z,57.70
2018-03-31T02:58:21.363Z,55.30
2018-03-31T02:59:53.285Z,55.80
2018-03-31T03:01:24.997Z,57.30
2018-03-31T03:02:56.815Z,60.00
2018-03-31T03:04:28.628Z,59.20
2018-03-31T03:06:00.445Z,55.70
2018-03-31T03:07:32.260Z,60.80
2018-03-31T03:09:04.077Z,66.80
2018-03-31T03:10:35.892Z,62.60
2018-03-31T03:12:07.709Z,72.50
2018-03-31T03:13:39.525Z,63.80
2018-03-31T03:15:11.341Z,69.90
2018-03-31T03:16:43.157Z,63.40
2018-03-31T03:18:15.073Z,65.00
2018-03-31T03:19:46.790Z,67.00
2018-03-31T03:21:18.605Z,61.60
2018-03-31T03:22:50.422Z,62.40
2018-03-31T03:24:22.488Z,60.60
2018-03-31T03:25:54.056Z,68.50
2018-03-31T03:27:25.870Z,65.00
2018-03-31T03:28:57.686Z,63.00
2018-03-31T03:30:29.607Z,61.20
2018-03-31T03:32:01.318Z,61.70
2018-03-31T03:33:33.134Z,64.70
2018-03-31T03:35:04.951Z,59.60
2018-03-31T03:36:36.867Z,58.80
2018-03-31T03:38:08.583Z,60.30
2018-03-31T03:39:40.398Z,60.00
2018-03-31T03:41:12.215Z,63.50
2018-03-31T03:42:44.031Z,75.60
2018-03-31T03:44:15.847Z,90.10
2018-03-31T03:45:47.664Z,70.50
2018-03-31T03:47:19.480Z,67.80
2018-03-31T03:48:51.296Z,77.70
2018-03-31T03:50:23.113Z,81.90
2018-03-31T03:51:54.929Z,75.70
2018-03-31T03:53:26.746Z,73.80
2018-03-31T03:54:58.762Z,73.70
2018-03-31T03:56:30.378Z,76.80
2018-03-31T03:58:02.193Z,77.10
2018-03-31T03:59:34.009Z,77.70
2018-03-31T04:01:05.829Z,80.30
2018-03-31T04:02:37.643Z,76.50
2018-03-31T04:04:09.457Z,91.70
2018-03-31T04:05:41.272Z,90.60
2018-03-31T04:07:13.088Z,98.90
2018-03-31T04:08:44.907Z,93.60
2018-03-31T04:10:16.723Z,84.90
2018-03-31T04:11:48.535Z,92.20
2018-03-31T04:13:20.450Z,93.00
2018-03-31T04:14:52.166Z,88.30
2018-03-31T04:16:23.982Z,82.30
2018-03-31T04:17:55.801Z,67.70
2018-03-31T04:19:27.613Z,90.40
2018-03-31T04:20:59.428Z,84.90
2018-03-31T04:22:31.245Z,86.60
2018-03-31T04:24:03.073Z,91.30
2018-03-31T04:25:34.976Z,97.10
2018-03-31T04:27:06.692Z,89.60
2018-03-31T04:28:38.507Z,73.50
2018-03-31T04:30:10.323Z,83.10
2018-03-31T04:31:42.240Z,90.80
2018-03-31T04:33:13.956Z,90.20
2018-03-31T04:34:45.771Z,80.20
2018-03-31T04:36:17.588Z,98.90
2018-03-31T04:37:49.403Z,79.80
2018-03-31T04:39:21.220Z,79.80
2018-03-31T04:40:53.036Z,74.70
2018-03-31T04:42:24.852Z,73.80
2018-03-31T04:43:56.668Z,74.40
2018-03-31T04:45:28.484Z,83.10
2018-03-31T04:47:00.300Z,78.60
2018-03-31T04:48:32.119Z,78.20
2018-03-31T04:50:04.032Z,84.50
2018-03-31T04:51:35.749Z,101.50
2018-03-31T04:53:07.564Z,94.20
2018-03-31T04:54:39.381Z,89.60
2018-03-31T04:56:11.447Z,92.50
2018-03-31T04:57:43.012Z,86.30
2018-03-31T04:59:14.828Z,91.10
2018-03-31T05:00:46.644Z,87.30
2018-03-31T05:02:18.561Z,83.20
2018-03-31T05:03:50.276Z,82.00
2018-03-31T05:05:22.091Z,83.90
2018-03-31T05:06:53.906Z,80.00
2018-03-31T05:08:25.821Z,74.10
2018-03-31T05:09:57.541Z,80.80
2018-03-31T05:11:29.354Z,88.60
2018-03-31T05:13:01.169Z,82.70
2018-03-31T05:14:32.984Z,86.30
2018-03-31T05:16:04.800Z,81.30
2018-03-31T05:17:36.616Z,97.50
2018-03-31T05:19:08.432Z,118.00
2018-03-31T05:20:40.248Z,124.50
2018-03-31T05:22:12.063Z,106.70
2018-03-31T05:23:43.879Z,83.70
2018-03-31T05:25:15.695Z,82.50
2018-03-31T05:26:47.717Z,84.40
2018-03-31T05:28:19.329Z,79.50
2018-03-31T05:29:51.142Z,86.90
2018-03-31T05:31:22.958Z,85.60
2018-03-31T05:32:54.774Z,90.10
2018-03-31T05:34:26.590Z,87.30
2018-03-31T05:35:58.405Z,81.90
2018-03-31T05:37:30.220Z,76.40
2018-03-31T05:39:02.036Z,77.90
2018-03-31T05:40:33.851Z,74.30
2018-03-31T05:42:05.703Z,80.60
2018-03-31T05:43:37.481Z,77.20
2018-03-31T05:45:09.397Z,84.60
2018-03-31T05:46:41.113Z,80.30
2018-03-31T05:48:12.928Z,78.10
2018-03-31T05:49:44.946Z,78.40
2018-03-31T05:51:16.558Z,72.30
2018-03-31T05:52:48.375Z,67.40
2018-03-31T05:54:20.192Z,72.60
2018-03-31T05:55:52.006Z,70.40
2018-03-31T05:57:24.071Z,70.90
2018-03-31T05:58:55.636Z,73.30
2018-03-31T06:00:27.451Z,71.40
2018-03-31T06:01:59.267Z,73.10
2018-03-31T06:03:31.284Z,71.70
2018-03-31T06:05:02.900Z,83.60
2018-03-31T06:06:34.719Z,77.60
2018-03-31T06:08:06.531Z,79.30
2018-03-31T06:09:38.347Z,80.00
2018-03-31T06:11:10.159Z,76.70
2018-03-31T06:12:41.975Z,77.50
2018-03-31T06:14:13.791Z,74.70
2018-03-31T06:15:45.607Z,77.20
2018-03-31T06:17:17.421Z,74.20
2018-03-31T06:18:49.236Z,74.80
2018-03-31T06:20:21.052Z,72.40
2018-03-31T06:21:52.967Z,73.60
2018-03-31T06:23:24.682Z,67.70
2018-03-31T06:24:56.497Z,69.40
2018-03-31T06:26:28.312Z,71.00
2018-03-31T06:28:00.378Z,70.40
2018-03-31T06:29:31.942Z,72.30
2018-03-31T06:31:03.757Z,70.40
2018-03-31T06:32:35.573Z,74.40
2018-03-31T06:34:07.488Z,73.00
2018-03-31T06:35:39.202Z,74.80
2018-03-31T06:37:11.017Z,70.90
2018-03-31T06:38:42.837Z,71.20
2018-03-31T06:40:14.748Z,77.00
2018-03-31T06:43:18.277Z,74.70
2018-03-31T06:44:50.092Z,73.70
2018-03-31T06:46:21.908Z,73.30
2018-03-31T06:47:53.721Z,73.10
2018-03-31T06:49:25.538Z,69.20
2018-03-31T06:50:57.352Z,71.20
2018-03-31T06:52:29.169Z,66.90
2018-03-31T06:54:00.983Z,70.50
2018-03-31T06:55:32.799Z,64.90
2018-03-31T06:57:04.614Z,65.10
2018-03-31T06:58:36.629Z,70.70
2018-03-31T07:00:08.243Z,67.20
2018-03-31T07:01:40.058Z,63.90
2018-03-31T07:03:11.873Z,61.10
2018-03-31T07:04:43.840Z,71.00
2018-03-31T07:06:15.505Z,71.10
2018-03-31T07:07:47.320Z,71.30
2018-03-31T07:09:19.136Z,75.00
2018-03-31T07:10:50.957Z,74.40
2018-03-31T07:12:22.767Z,72.80
2018-03-31T07:13:54.583Z,75.10
2018-03-31T07:15:26.437Z,67.70
2018-03-31T07:16:58.314Z,71.60
2018-03-31T07:18:30.031Z,73.60
2018-03-31T07:20:01.845Z,73.60
2018-03-31T07:21:33.660Z,75.50
2018-03-31T07:23:05.476Z,73.00
2018-03-31T07:24:37.291Z,75.10
2018-03-31T07:26:09.106Z,74.50
2018-03-31T07:27:40.921Z,73.80
2018-03-31T07:29:12.836Z,76.90
2018-03-31T07:30:44.551Z,74.30
2018-03-31T07:32:16.367Z,78.10
2018-03-31T07:33:48.181Z,74.70
2018-03-31T07:35:20.096Z,68.30
2018-03-31T07:36:51.811Z,72.40
2018-03-31T07:38:23.625Z,72.40
2018-03-31T07:39:55.440Z,71.50
2018-03-31T07:41:27.255Z,72.40
2018-03-31T07:42:59.071Z,68.50
2018-03-31T07:44:30.885Z,70.30
2018-03-31T07:46:02.703Z,72.00
2018-03-31T07:47:34.515Z,69.60
2018-03-31T07:49:06.330Z,66.20
2018-03-31T07:50:38.145Z,65.10
2018-03-31T07:52:09.973Z,64.70
2018-03-31T07:53:41.876Z,64.30
2018-03-31T07:55:13.590Z,65.90
2018-03-31T07:56:45.405Z,66.10
2018-03-31T07:58:17.272Z,64.60
2018-03-31T07:59:49.286Z,62.70
2018-03-31T08:01:20.851Z,62.50
2018-03-31T08:02:52.666Z,62.20
2018-03-31T08:04:24.480Z,61.90
2018-03-31T08:05:56.396Z,60.80
2018-03-31T08:07:28.110Z,57.70
2018-03-31T08:08:59.927Z,60.50
2018-03-31T08:10:31.741Z,59.40
2018-03-31T08:12:03.656Z,60.20
2018-03-31T08:13:35.371Z,58.70
2018-03-31T08:15:07.186Z,62.50
2018-03-31T08:16:39.027Z,59.70
2018-03-31T08:18:10.816Z,61.80
2018-03-31T08:19:42.629Z,56.10
2018-03-31T08:21:14.444Z,58.10
2018-03-31T08:22:46.259Z,53.70
2018-03-31T08:24:18.074Z,52.30
2018-03-31T08:25:49.887Z,54.70
2018-03-31T08:27:21.702Z,54.70
2018-03-31T08:28:53.517Z,54.30
2018-03-31T08:30:25.737Z,52.70
2018-03-31T08:31:57.146Z,53.60
2018-03-31T08:33:28.961Z,52.60
2018-03-31T08:35:00.776Z,54.20
2018-03-31T08:36:32.690Z,55.50
2018-03-31T08:38:04.405Z,53.00
2018-03-31T08:39:36.219Z,52.20
2018-03-31T08:41:08.036Z,55.00
2018-03-31T08:42:39.848Z,52.80
2018-03-31T08:44:11.663Z,53.40
2018-03-31T08:45:43.477Z,53.10
2018-03-31T08:47:15.366Z,51.90
2018-03-31T08:48:47.207Z,53.10
2018-03-31T08:50:18.923Z,52.60
2018-03-31T08:51:50.735Z,53.60
2018-03-31T08:53:22.550Z,54.90
2018-03-31T08:54:54.364Z,54.70
2018-03-31T08:56:26.178Z,52.70
2018-03-31T08:57:57.992Z,55.10
2018-03-31T08:59:29.807Z,53.70
2018-03-31T09:01:01.872Z,54.60
2018-03-31T09:02:33.436Z,55.40
2018-03-31T09:04:05.255Z,53.70
2018-03-31T09:05:37.064Z,55.20
2018-03-31T09:07:09.084Z,53.50
2018-03-31T09:08:40.694Z,54.70
2018-03-31T09:10:12.508Z,53.80
2018-03-31T09:11:44.321Z,55.60
2018-03-31T09:13:16.135Z,54.20
2018-03-31T09:14:47.951Z,53.60
2018-03-31T09:16:19.765Z,54.90
2018-03-31T09:17:51.579Z,55.80
2018-03-31T09:19:23.394Z,57.70
2018-03-31T09:20:55.212Z,57.90
2018-03-31T09:22:27.022Z,55.30
2018-03-31T09:23:58.965Z,53.90
2018-03-31T09:25:30.755Z,52.40
2018-03-31T09:27:02.466Z,56.10
2018-03-31T09:28:34.280Z,52.40
2018-03-31T09:30:06.098Z,52.50
2018-03-31T09:31:38.159Z,56.80
2018-03-31T09:33:09.724Z,52.50
2018-03-31T09:34:41.539Z,52.90
2018-03-31T09:36:13.364Z,48.90
2018-03-31T09:37:45.269Z,48.80
2018-03-31T09:39:16.984Z,50.10
2018-03-31T09:40:48.801Z,52.50
2018-03-31T09:42:20.616Z,48.20
2018-03-31T09:43:52.532Z,47.30
2018-03-31T09:45:24.247Z,46.60
2018-03-31T09:46:56.064Z,47.70
2018-03-31T09:48:27.882Z,48.30
2018-03-31T09:49:59.706Z,45.70
2018-03-31T09:51:31.715Z,49.40
2018-03-31T09:53:03.335Z,41.90
2018-03-31T09:54:35.145Z,41.90
2018-03-31T09:56:06.963Z,41.70
2018-03-31T09:57:38.779Z,38.00
2018-03-31T09:59:10.599Z,40.10
2018-03-31T10:00:42.417Z,41.70
2018-03-31T10:02:14.632Z,38.70
2018-03-31T10:03:46.050Z,38.30
2018-03-31T10:05:17.869Z,36.00
2018-03-31T10:06:49.685Z,36.10
2018-03-31T10:08:21.806Z,36.10
2018-03-31T10:09:53.319Z,36.20
2018-03-31T10:11:25.137Z,37.10
2018-03-31T10:12:56.958Z,34.80
2018-03-31T10:14:28.773Z,34.90
2018-03-31T10:16:00.592Z,33.20
2018-03-31T10:17:32.415Z,31.80
2018-03-31T10:19:04.230Z,28.00
2018-03-31T10:20:36.149Z,28.70
2018-03-31T10:22:07.881Z,27.00
2018-03-31T10:23:39.889Z,25.80
2018-03-31T10:25:11.811Z,25.90
2018-03-31T10:26:43.326Z,26.20
2018-03-31T10:28:15.144Z,23.80
2018-03-31T10:29:46.964Z,24.60
2018-03-31T10:31:18.892Z,22.90
2018-03-31T10:32:50.703Z,24.40
2018-03-31T10:34:22.425Z,24.10
2018-03-31T10:35:54.246Z,21.70
2018-03-31T10:37:26.063Z,21.60
2018-03-31T10:38:57.984Z,19.50
2018-03-31T10:40:29.705Z,18.10
2018-03-31T10:42:01.828Z,22.40
2018-03-31T10:43:33.346Z,19.40
2018-03-31T10:45:05.165Z,18.50
2018-03-31T10:46:36.986Z,17.00
2018-03-31T10:48:08.807Z,18.00
2018-03-31T10:49:40.628Z,15.80
2018-03-31T10:51:12.451Z,15.30
2018-03-31T10:52:44.270Z,15.00
2018-03-31T10:54:16.091Z,15.00
2018-03-31T10:55:48.431Z,12.80
2018-03-31T10:57:19.834Z,13.90
2018-03-31T10:58:51.556Z,13.70
2018-03-31T11:00:23.418Z,11.80
2018-03-31T11:01:55.201Z,12.20
2018-03-31T11:03:27.577Z,11.40
2018-03-31T11:04:58.845Z,11.20
2018-03-31T11:06:30.667Z,11.00
2018-03-31T11:08:02.493Z,11.20
2018-03-31T11:09:34.313Z,10.70
2018-03-31T11:11:06.136Z,11.20
2018-03-31T11:12:37.959Z,10.60
2018-03-31T11:14:09.781Z,9.20
2018-03-31T11:15:41.906Z,8.50
2018-03-31T11:17:13.732Z,9.00
2018-03-31T11:18:45.249Z,9.80
2018-03-31T11:20:17.072Z,9.00
2018-03-31T11:21:48.894Z,9.20
2018-03-31T11:23:20.717Z,8.10
2018-03-31T11:24:52.751Z,8.30
2018-03-31T11:26:24.362Z,9.00
2018-03-31T11:27:56.184Z,8.20
2018-03-31T11:29:28.007Z,8.20
2018-03-31T11:31:00.032Z,7.00
2018-03-31T11:32:31.652Z,7.40
2018-03-31T11:34:03.881Z,7.20
2018-03-31T11:35:35.600Z,6.50
2018-03-31T11:37:07.119Z,7.70
2018-03-31T11:38:38.941Z,6.50
2018-03-31T11:40:10.766Z,6.50
2018-03-31T11:41:42.587Z,6.10
2018-03-31T11:43:14.409Z,6.60
2018-03-31T11:44:46.229Z,7.00
2018-03-31T11:46:18.054Z,6.60
2018-03-31T11:47:49.875Z,7.20
2018-03-31T11:49:21.700Z,7.50
2018-03-31T11:50:53.518Z,7.20
2018-03-31T11:52:25.442Z,7.50
2018-03-31T11:53:57.162Z,7.80
2018-03-31T11:55:28.985Z,7.70
2018-03-31T11:58:32.629Z,8.30
2018-03-31T12:00:04.654Z,8.40
2018-03-31T12:03:08.096Z,7.60
2018-03-31T12:04:40.372Z,8.60
2018-03-31T12:06:11.742Z,8.50
2018-03-31T12:07:43.565Z,8.70
2018-03-31T12:09:15.691Z,8.60
2018-03-31T12:10:47.512Z,8.60
2018-03-31T12:12:19.035Z,9.30
2018-03-31T12:13:50.858Z,8.50
2018-03-31T12:15:22.681Z,8.50
2018-03-31T12:18:26.332Z,9.00
2018-03-31T12:19:58.151Z,10.00
2018-03-31T12:21:29.976Z,10.40
2018-03-31T12:24:33.730Z,10.60
2018-03-31T12:26:05.446Z,9.80
2018-03-31T12:27:37.269Z,9.90
2018-03-31T12:29:09.092Z,9.30
2018-03-31T12:30:41.016Z,8.70
2018-03-31T12:32:12.741Z,9.90
2018-03-31T12:33:44.869Z,9.90
2018-03-31T12:35:16.396Z,9.40
2018-03-31T12:36:48.365Z,8.60
2018-03-31T12:38:20.040Z,7.80
2018-03-31T12:39:51.866Z,9.00
2018-03-31T12:42:55.515Z,8.60
2018-03-31T12:44:27.339Z,8.50
2018-03-31T12:45:59.164Z,8.20
2018-03-31T12:47:30.988Z,9.10
2018-03-31T12:49:02.915Z,8.30
2018-03-31T12:50:34.637Z,8.10
2018-03-31T12:52:06.462Z,8.80
2018-03-31T12:53:38.287Z,8.10
2018-03-31T12:55:10.212Z,7.70
2018-03-31T12:56:41.937Z,9.40
2018-03-31T12:58:13.764Z,8.60
2018-03-31T13:01:17.931Z,7.20
2018-03-31T13:02:49.236Z,7.10
2018-03-31T13:04:21.064Z,7.60
2018-03-31T13:05:52.886Z,7.60
2018-03-31T13:07:24.810Z,7.20
2018-03-31T13:08:56.536Z,6.40
2018-03-31T13:10:28.360Z,7.70
2018-03-31T13:12:00.388Z,5.70
2018-03-31T13:13:32.010Z,6.50
2018-03-31T13:15:03.834Z,5.70
2018-03-31T13:18:07.485Z,5.70
2018-03-31T13:19:39.828Z,5.70
2018-03-31T13:21:11.136Z,5.60
2018-03-31T13:22:42.957Z,4.90
2018-03-31T13:24:14.782Z,5.30
2018-03-31T13:25:46.908Z,5.50
2018-03-31T13:27:18.432Z,4.50
2018-03-31T13:28:50.256Z,4.90
2018-03-31T13:30:22.081Z,5.30
2018-03-31T13:33:25.729Z,5.70
2018-03-31T13:34:57.799Z,5.60
2018-03-31T13:36:29.381Z,5.10
2018-03-31T13:38:01.201Z,5.00
2018-03-31T13:39:33.025Z,5.80
2018-03-31T13:41:04.851Z,5.10
2018-03-31T13:42:36.674Z,5.00
2018-03-31T13:44:08.498Z,5.60
2018-03-31T13:45:40.426Z,5.20
2018-03-31T13:47:12.147Z,5.20
2018-03-31T13:48:43.972Z,5.00
2018-03-31T13:50:16.101Z,4.90
2018-03-31T13:51:47.622Z,5.10
2018-03-31T13:53:19.751Z,5.00
2018-03-31T13:54:51.793Z,5.40
2018-03-31T13:56:23.097Z,4.70
2018-03-31T13:57:55.021Z,4.90
2018-03-31T13:59:26.747Z,4.60
2018-03-31T14:00:58.576Z,4.90
2018-03-31T14:02:30.396Z,4.40
2018-03-31T14:04:02.321Z,4.10
2018-03-31T14:07:06.174Z,4.60
2018-03-31T14:08:37.696Z,4.70
2018-03-31T14:10:10.030Z,4.50
2018-03-31T14:11:41.346Z,4.70
2018-03-31T14:13:13.173Z,4.60
2018-03-31T14:14:45.003Z,5.10
2018-03-31T14:16:16.821Z,4.60
2018-03-31T14:19:20.472Z,3.90
2018-03-31T14:20:52.297Z,4.20
2018-03-31T14:22:24.223Z,4.40
2018-03-31T14:23:55.947Z,3.50
2018-03-31T14:25:27.772Z,3.10
2018-03-31T14:28:31.425Z,3.00
2018-03-31T14:30:03.765Z,3.00
2018-03-31T14:31:35.071Z,2.80
2018-03-31T14:33:06.896Z,3.60
2018-03-31T14:34:38.723Z,4.10
2018-03-31T14:36:10.552Z,2.80
2018-03-31T14:37:42.370Z,2.80
2018-03-31T14:39:14.195Z,3.30
2018-03-31T14:40:46.120Z,3.00
2018-03-31T14:43:49.668Z,3.10
2018-03-31T14:45:21.700Z,3.10
2018-03-31T14:46:53.838Z,2.70
2018-03-31T14:48:25.143Z,3.00
2018-03-31T14:49:56.968Z,2.90
2018-03-31T14:51:28.798Z,2.90
2018-03-31T14:54:32.445Z,3.50
2018-03-31T14:56:04.269Z,3.00
2018-03-31T14:57:36.095Z,3.00
2018-03-31T14:59:07.921Z,3.00
2018-03-31T15:00:40.466Z,3.10
2018-03-31T15:02:12.496Z,2.90
2018-03-31T15:03:43.399Z,3.10
2018-03-31T15:05:15.535Z,2.60
2018-03-31T15:06:47.052Z,2.70
2018-03-31T15:08:18.879Z,2.80
2018-03-31T15:09:50.706Z,2.70
2018-03-31T15:11:22.532Z,2.80
2018-03-31T15:12:54.359Z,2.80
2018-03-31T15:14:26.184Z,2.80
2018-03-31T15:15:58.365Z,2.80
2018-03-31T15:17:30.041Z,2.60
2018-03-31T15:19:02.491Z,2.40
2018-03-31T15:20:33.698Z,2.60
2018-03-31T15:22:05.836Z,2.30
2018-03-31T15:23:37.145Z,2.30
2018-03-31T15:25:08.971Z,2.50
2018-03-31T15:26:40.798Z,2.50
2018-03-31T15:28:12.625Z,2.60
2018-03-31T15:29:44.456Z,2.80
2018-03-31T15:31:16.375Z,2.60
2018-03-31T15:32:48.102Z,2.50
2018-03-31T15:34:20.131Z,2.60
2018-03-31T15:35:51.756Z,2.40
2018-03-31T15:38:55.760Z,2.20
2018-03-31T15:40:27.543Z,2.30
2018-03-31T15:41:59.085Z,2.00
2018-03-31T15:43:30.891Z,2.30
2018-03-31T15:45:02.782Z,2.60
2018-03-31T15:46:34.600Z,2.60
2018-03-31T15:48:06.372Z,2.30
2018-03-31T15:49:38.199Z,2.10
2018-03-31T15:51:10.026Z,2.50
2018-03-31T15:54:14.199Z,2.10
2018-03-31T15:57:17.447Z,2.70
2018-03-31T15:58:49.162Z,2.60
2018-03-31T16:00:20.987Z,2.80
2018-03-31T16:01:52.821Z,2.70
2018-03-31T16:03:24.640Z,2.40
2018-03-31T16:04:56.467Z,2.30
2018-03-31T16:06:28.293Z,2.10
2018-03-31T16:08:00.119Z,2.10
2018-03-31T16:09:32.197Z,2.60
2018-03-31T16:11:04.289Z,2.60
2018-03-31T16:12:35.900Z,2.50
2018-03-31T16:14:07.424Z,2.90
2018-03-31T16:15:39.353Z,3.10
2018-03-31T16:17:11.075Z,2.80
2018-03-31T16:18:42.899Z,3.10
2018-03-31T16:20:14.726Z,2.80
2018-03-31T16:21:46.553Z,2.50
2018-03-31T16:23:18.381Z,2.60
2018-03-31T16:24:50.205Z,2.20
2018-03-31T16:26:22.033Z,2.40
2018-03-31T16:27:53.861Z,2.20
2018-03-31T16:29:25.717Z,2.60
2018-03-31T16:32:29.346Z,2.10
2018-03-31T16:34:01.427Z,2.20
2018-03-31T16:35:33.005Z,2.10
2018-03-31T16:37:05.353Z,2.30
2018-03-31T16:38:36.666Z,2.00
2018-03-31T16:40:08.751Z,2.30
2018-03-31T16:41:40.321Z,2.00
2018-03-31T16:43:12.152Z,2.40
2018-03-31T16:44:43.980Z,2.40
2018-03-31T16:46:15.810Z,2.40
2018-03-31T16:47:47.640Z,2.20
2018-03-31T16:49:19.670Z,2.20
2018-03-31T16:50:52.206Z,3.00
2018-03-31T16:52:23.267Z,2.40
2018-03-31T16:53:54.954Z,3.20
2018-03-31T16:55:26.783Z,2.80
2018-03-31T16:56:58.611Z,2.60
2018-03-31T16:58:30.446Z,2.20
2018-03-31T17:00:02.271Z,2.50
2018-03-31T17:01:34.098Z,2.60
2018-03-31T17:03:06.128Z,2.60
2018-03-31T17:04:37.856Z,2.00
2018-03-31T17:07:41.413Z,2.40
2018-03-31T17:09:13.546Z,2.10
2018-03-31T17:10:45.422Z,2.10
2018-03-31T17:12:16.899Z,2.70
2018-03-31T17:13:48.726Z,2.30
2018-03-31T17:15:20.553Z,2.30
2018-03-31T17:16:52.380Z,2.60
2018-03-31T17:18:24.210Z,2.60
2018-03-31T17:19:56.035Z,3.00
2018-03-31T17:21:27.861Z,3.10
2018-03-31T17:23:00.207Z,3.10
2018-03-31T17:26:03.339Z,2.90
2018-03-31T17:27:35.169Z,3.20
2018-03-31T17:29:07.089Z,3.10
2018-03-31T17:30:38.815Z,3.50
2018-03-31T17:32:10.639Z,3.60
2018-03-31T17:33:42.464Z,3.10
2018-03-31T17:35:14.389Z,3.20
2018-03-31T17:36:46.139Z,3.90
2018-03-31T17:38:17.939Z,3.50
2018-03-31T17:39:49.972Z,3.10
2018-03-31T17:42:53.458Z,3.50
2018-03-31T17:44:25.754Z,3.00
2018-03-31T17:45:57.061Z,3.70
2018-03-31T17:47:28.885Z,3.50
2018-03-31T17:49:00.813Z,3.00
2018-03-31T17:50:32.684Z,3.30
2018-03-31T17:52:04.359Z,3.40
2018-03-31T17:53:36.182Z,3.30
2018-03-31T17:55:08.214Z,2.90
2018-03-31T17:56:39.830Z,4.10
2018-03-31T17:58:11.656Z,3.50
2018-03-31T17:59:43.682Z,3.20
2018-03-31T18:01:15.609Z,3.50
2018-03-31T18:02:47.131Z,3.10
2018-03-31T18:04:18.954Z,3.20
2018-03-31T18:07:22.808Z,3.40
2018-03-31T18:08:54.430Z,3.80
2018-03-31T18:10:26.256Z,3.50
2018-03-31T18:11:58.080Z,3.30
2018-03-31T18:13:30.155Z,3.30
2018-03-31T18:15:01.729Z,3.10
2018-03-31T18:18:05.380Z,3.60
2018-03-31T18:19:37.208Z,3.30
2018-03-31T18:21:09.030Z,2.90
2018-03-31T18:22:40.856Z,2.60
2018-03-31T18:24:12.680Z,3.10
2018-03-31T18:25:44.608Z,2.50
2018-03-31T18:27:16.337Z,2.60
2018-03-31T18:28:48.158Z,2.60
2018-03-31T18:30:19.984Z,2.70
2018-03-31T18:31:51.809Z,2.50
2018-03-31T18:34:55.463Z,2.70
2018-03-31T18:36:27.804Z,3.00
2018-03-31T18:37:59.109Z,3.70
2018-03-31T18:39:30.935Z,3.20
2018-03-31T18:41:02.760Z,4.00
2018-03-31T18:42:34.583Z,3.30
2018-03-31T18:44:06.860Z,3.50
2018-03-31T18:45:38.233Z,3.50
2018-03-31T18:47:10.056Z,3.30
2018-03-31T18:48:41.881Z,2.60
2018-03-31T18:50:13.705Z,3.10
2018-03-31T18:51:45.732Z,3.80
2018-03-31T18:53:17.354Z,3.00
2018-03-31T18:54:49.177Z,3.30
2018-03-31T18:56:21.001Z,3.20
2018-03-31T18:57:52.825Z,3.80
2018-03-31T18:59:24.650Z,3.40
2018-03-31T19:00:56.471Z,3.60
2018-03-31T19:02:28.395Z,3.40
2018-03-31T19:04:00.121Z,3.40
2018-03-31T19:05:31.940Z,3.60
2018-03-31T19:07:03.780Z,3.70
2018-03-31T19:10:07.409Z,3.90
2018-03-31T19:11:39.232Z,4.80
2018-03-31T19:13:11.089Z,4.60
2018-03-31T19:14:42.879Z,4.40
2018-03-31T19:16:14.700Z,3.80
2018-03-31T19:17:46.523Z,4.80
2018-03-31T19:19:18.345Z,4.00
2018-03-31T19:20:50.168Z,3.60
2018-03-31T19:22:22.090Z,3.90
2018-03-31T19:23:54.065Z,3.70
2018-03-31T19:25:25.635Z,4.20
2018-03-31T19:26:57.662Z,4.60
2018-03-31T19:28:29.381Z,3.70
2018-03-31T19:30:01.103Z,4.40
2018-03-31T19:31:32.926Z,3.80
2018-03-31T19:33:04.749Z,4.50
2018-03-31T19:34:36.571Z,5.50
2018-03-31T19:36:08.394Z,11.40
2018-03-31T19:37:40.217Z,11.80
2018-03-31T19:39:12.040Z,16.10
2018-03-31T19:40:43.963Z,17.40
2018-03-31T19:42:15.685Z,21.60
2018-03-31T19:45:19.333Z,25.30
2018-03-31T19:46:51.402Z,24.40
2018-03-31T19:48:22.973Z,24.30
2018-03-31T19:49:54.796Z,22.50
2018-03-31T19:51:26.618Z,23.90
2018-03-31T19:52:58.957Z,26.70
2018-03-31T19:54:30.260Z,27.40
2018-03-31T19:56:02.082Z,27.40
2018-03-31T19:57:33.903Z,31.10
2018-03-31T19:59:05.985Z,30.70
2018-03-31T20:00:37.545Z,31.40
2018-03-31T20:02:09.368Z,32.10
2018-03-31T20:03:41.187Z,32.50
2018-03-31T20:05:13.008Z,32.20
2018-03-31T20:06:44.833Z,31.00
2018-03-31T20:08:16.649Z,29.10
2018-03-31T20:09:48.469Z,31.30
2018-03-31T20:11:20.293Z,31.30
2018-03-31T20:12:52.112Z,31.10
2018-03-31T20:14:23.929Z,30.00
2018-03-31T20:15:55.750Z,31.60
2018-03-31T20:17:27.670Z,33.00
2018-03-31T20:18:59.389Z,33.60
2018-03-31T20:20:31.209Z,33.00
2018-03-31T20:22:03.029Z,32.70
2018-03-31T20:23:34.849Z,32.10
2018-03-31T20:25:06.668Z,33.50
2018-03-31T20:26:38.487Z,33.70
2018-03-31T20:28:10.307Z,33.90
2018-03-31T20:29:42.226Z,31.30
2018-03-31T20:31:13.945Z,33.10
2018-03-31T20:32:45.764Z,33.40
2018-03-31T20:34:17.587Z,33.20
2018-03-31T20:35:49.504Z,33.10
2018-03-31T20:37:21.222Z,34.00
2018-03-31T20:38:53.041Z,35.50
2018-03-31T20:40:24.861Z,36.70